sensor_id;sensor_type;location;lat;lon;timestamp;pressure;altitude;pressure_sealevel;temperature;humidity
77776;BME280;66965;43.328;6.668;2023-08-12T00:01:00;102015.06;;;23.11;100.00
77776;BME280;66965;43.328;6.668;2023-08-12T00:03:25;102022.41;;;23.07;100.00
77776;BME280;66965;43.328;6.668;2023-08-12T00:05:52;102020.75;;;23.05;100.00
77776;BME280;66965;43.328;6.668;2023-08-12T00:08:17;102024.53;;;23.00;100.00
77776;BME280;66965;43.328;6.668;2023-08-12T00:10:43;102028.94;;;23.01;100.00
77776;BME280;66965;43.328;6.668;2023-08-12T00:13:09;102021.69;;;23.03;100.00
77776;BME280;66965;43.328;6.668;2023-08-12T00:15:34;102015.94;;;23.11;100.00
77776;BME280;66965;43.328;6.668;2023-08-12T00:17:59;102012.72;;;23.05;100.00
77776;BME280;66965;43.328;6.668;2023-08-12T00:20:25;102015.66;;;23.00;100.00
77776;BME280;66965;43.328;6.668;2023-08-12T00:22:50;102021.25;;;22.95;100.00
77776;BME280;66965;43.328;6.668;2023-08-12T00:25:16;102010.91;;;22.89;100.00
77776;BME280;66965;43.328;6.668;2023-08-12T00:27:41;102014.91;;;22.81;100.00
77776;BME280;66965;43.328;6.668;2023-08-12T00:30:07;102010.44;;;22.81;100.00
77776;BME280;66965;43.328;6.668;2023-08-12T00:32:34;102001.03;;;22.90;100.00
77776;BME280;66965;43.328;6.668;2023-08-12T00:34:59;102002.50;;;22.95;100.00
77776;BME280;66965;43.328;6.668;2023-08-12T00:37:25;101999.38;;;22.87;100.00
77776;BME280;66965;43.328;6.668;2023-08-12T00:39:50;102009.16;;;22.88;100.00
77776;BME280;66965;43.328;6.668;2023-08-12T00:42:15;101999.31;;;22.89;100.00
77776;BME280;66965;43.328;6.668;2023-08-12T00:44:41;102003.88;;;22.87;100.00
77776;BME280;66965;43.328;6.668;2023-08-12T00:47:07;102000.19;;;22.89;100.00
77776;BME280;66965;43.328;6.668;2023-08-12T00:49:32;102012.25;;;22.81;100.00
77776;BME280;66965;43.328;6.668;2023-08-12T00:51:58;102009.63;;;22.79;100.00
77776;BME280;66965;43.328;6.668;2023-08-12T00:54:24;102010.09;;;22.87;100.00
77776;BME280;66965;43.328;6.668;2023-08-12T00:56:52;102008.09;;;22.75;100.00
77776;BME280;66965;43.328;6.668;2023-08-12T00:59:20;102010.03;;;22.72;100.00
77776;BME280;66965;43.328;6.668;2023-08-12T01:01:46;102014.19;;;22.60;100.00
77776;BME280;66965;43.328;6.668;2023-08-12T01:06:37;102017.88;;;22.58;100.00
77776;BME280;66965;43.328;6.668;2023-08-12T01:09:04;102019.47;;;22.62;100.00
77776;BME280;66965;43.328;6.668;2023-08-12T01:11:51;102014.31;;;22.76;100.00
77776;BME280;66965;43.328;6.668;2023-08-12T01:14:28;102006.19;;;22.77;100.00
77776;BME280;66965;43.328;6.668;2023-08-12T01:17:01;102000.75;;;22.62;100.00
77776;BME280;66965;43.328;6.668;2023-08-12T01:22:00;102004.97;;;22.67;100.00
77776;BME280;66965;43.328;6.668;2023-08-12T01:24:26;102015.63;;;22.50;100.00
77776;BME280;66965;43.328;6.668;2023-08-12T01:26:52;102019.78;;;22.38;100.00
77776;BME280;66965;43.328;6.668;2023-08-12T01:29:18;102017.03;;;22.40;100.00
77776;BME280;66965;43.328;6.668;2023-08-12T01:31:52;102015.53;;;22.52;100.00
77776;BME280;66965;43.328;6.668;2023-08-12T01:34:46;102018.19;;;22.52;100.00
77776;BME280;66965;43.328;6.668;2023-08-12T01:37:19;102015.63;;;22.50;100.00
77776;BME280;66965;43.328;6.668;2023-08-12T01:39:48;102010.69;;;22.42;100.00
77776;BME280;66965;43.328;6.668;2023-08-12T01:42:16;102013.88;;;22.49;100.00
77776;BME280;66965;43.328;6.668;2023-08-12T01:44:43;102006.31;;;22.57;100.00
77776;BME280;66965;43.328;6.668;2023-08-12T01:47:09;102011.38;;;22.46;100.00
77776;BME280;66965;43.328;6.668;2023-08-12T01:49:34;102017.56;;;22.47;100.00
77776;BME280;66965;43.328;6.668;2023-08-12T01:52:00;102013.09;;;22.47;100.00
77776;BME280;66965;43.328;6.668;2023-08-12T01:54:25;102004.63;;;22.39;100.00
77776;BME280;66965;43.328;6.668;2023-08-12T01:56:51;102010.28;;;22.33;100.00
77776;BME280;66965;43.328;6.668;2023-08-12T01:59:16;102008.28;;;22.19;100.00
77776;BME280;66965;43.328;6.668;2023-08-12T02:01:42;101997.16;;;22.28;100.00
77776;BME280;66965;43.328;6.668;2023-08-12T02:04:07;101997.22;;;22.44;100.00
77776;BME280;66965;43.328;6.668;2023-08-12T02:06:33;101989.28;;;22.42;100.00
77776;BME280;66965;43.328;6.668;2023-08-12T02:08:58;101996.91;;;22.33;100.00
77776;BME280;66965;43.328;6.668;2023-08-12T02:11:23;102004.25;;;22.29;100.00
77776;BME280;66965;43.328;6.668;2023-08-12T02:13:49;102003.22;;;22.32;100.00
77776;BME280;66965;43.328;6.668;2023-08-12T02:16:14;102012.41;;;22.26;100.00
77776;BME280;66965;43.328;6.668;2023-08-12T02:18:40;102014.97;;;22.28;100.00
77776;BME280;66965;43.328;6.668;2023-08-12T02:21:05;102007.38;;;22.37;100.00
77776;BME280;66965;43.328;6.668;2023-08-12T02:23:30;102014.69;;;22.34;100.00
77776;BME280;66965;43.328;6.668;2023-08-12T02:25:56;102015.59;;;22.33;100.00
77776;BME280;66965;43.328;6.668;2023-08-12T02:28:21;102008.22;;;22.38;100.00
77776;BME280;66965;43.328;6.668;2023-08-12T02:30:47;102013.25;;;22.44;100.00
77776;BME280;66965;43.328;6.668;2023-08-12T02:33:12;102013.72;;;22.35;100.00
77776;BME280;66965;43.328;6.668;2023-08-12T02:35:38;102017.59;;;22.29;100.00
77776;BME280;66965;43.328;6.668;2023-08-12T02:38:03;102020.56;;;22.23;100.00
77776;BME280;66965;43.328;6.668;2023-08-12T02:40:29;102025.19;;;22.20;100.00
77776;BME280;66965;43.328;6.668;2023-08-12T02:42:54;102021.59;;;22.21;100.00
77776;BME280;66965;43.328;6.668;2023-08-12T02:45:19;102024.91;;;22.26;100.00
77776;BME280;66965;43.328;6.668;2023-08-12T02:47:45;102027.16;;;22.16;100.00
77776;BME280;66965;43.328;6.668;2023-08-12T02:50:10;102023.31;;;22.22;100.00
77776;BME280;66965;43.328;6.668;2023-08-12T02:52:36;102023.59;;;22.16;100.00
77776;BME280;66965;43.328;6.668;2023-08-12T02:55:01;102023.22;;;22.06;100.00
77776;BME280;66965;43.328;6.668;2023-08-12T02:57:27;102023.91;;;21.93;100.00
77776;BME280;66965;43.328;6.668;2023-08-12T02:59:52;102024.88;;;22.09;100.00
77776;BME280;66965;43.328;6.668;2023-08-12T03:02:18;102016.47;;;21.99;100.00
77776;BME280;66965;43.328;6.668;2023-08-12T03:04:43;102015.13;;;22.08;100.00
77776;BME280;66965;43.328;6.668;2023-08-12T03:07:09;102011.59;;;22.07;100.00
77776;BME280;66965;43.328;6.668;2023-08-12T03:09:35;102012.63;;;22.22;100.00
77776;BME280;66965;43.328;6.668;2023-08-12T03:12:00;102009.94;;;22.05;100.00
77776;BME280;66965;43.328;6.668;2023-08-12T03:14:28;102014.63;;;22.00;100.00
77776;BME280;66965;43.328;6.668;2023-08-12T03:16:54;102005.25;;;22.10;100.00
77776;BME280;66965;43.328;6.668;2023-08-12T03:19:20;102014.28;;;21.89;100.00
77776;BME280;66965;43.328;6.668;2023-08-12T03:21:45;102017.78;;;21.91;100.00
77776;BME280;66965;43.328;6.668;2023-08-12T03:24:10;102012.84;;;22.00;100.00
77776;BME280;66965;43.328;6.668;2023-08-12T03:26:36;102015.50;;;21.81;100.00
77776;BME280;66965;43.328;6.668;2023-08-12T03:29:01;102023.75;;;21.77;100.00
77776;BME280;66965;43.328;6.668;2023-08-12T03:31:27;102028.09;;;21.79;100.00
77776;BME280;66965;43.328;6.668;2023-08-12T03:33:52;102021.66;;;21.65;100.00
77776;BME280;66965;43.328;6.668;2023-08-12T03:36:18;102034.63;;;21.72;100.00
77776;BME280;66965;43.328;6.668;2023-08-12T03:38:43;102025.63;;;21.75;100.00
77776;BME280;66965;43.328;6.668;2023-08-12T03:41:08;102027.31;;;21.77;100.00
77776;BME280;66965;43.328;6.668;2023-08-12T03:43:34;102023.91;;;21.93;100.00
77776;BME280;66965;43.328;6.668;2023-08-12T03:45:59;102019.78;;;21.85;100.00
77776;BME280;66965;43.328;6.668;2023-08-12T03:48:25;102031.63;;;21.80;100.00
77776;BME280;66965;43.328;6.668;2023-08-12T03:50:50;102025.56;;;21.76;100.00
77776;BME280;66965;43.328;6.668;2023-08-12T03:53:16;102034.44;;;21.77;100.00
77776;BME280;66965;43.328;6.668;2023-08-12T03:55:42;102032.78;;;21.74;100.00
77776;BME280;66965;43.328;6.668;2023-08-12T03:58:08;102034.28;;;21.61;100.00
77776;BME280;66965;43.328;6.668;2023-08-12T04:00:33;102037.53;;;21.68;100.00
77776;BME280;66965;43.328;6.668;2023-08-12T04:02:59;102035.25;;;21.60;100.00
77776;BME280;66965;43.328;6.668;2023-08-12T04:05:24;102037.03;;;21.60;100.00
77776;BME280;66965;43.328;6.668;2023-08-12T04:07:50;102038.47;;;21.48;100.00
77776;BME280;66965;43.328;6.668;2023-08-12T04:10:15;102037.41;;;21.52;100.00
77776;BME280;66965;43.328;6.668;2023-08-12T04:12:41;102039.34;;;21.49;100.00
77776;BME280;66965;43.328;6.668;2023-08-12T04:15:07;102044.53;;;21.52;100.00
77776;BME280;66965;43.328;6.668;2023-08-12T04:17:32;102044.31;;;21.56;100.00
77776;BME280;66965;43.328;6.668;2023-08-12T04:19:58;102039.56;;;21.63;100.00
77776;BME280;66965;43.328;6.668;2023-08-12T04:22:23;102038.94;;;21.58;100.00
77776;BME280;66965;43.328;6.668;2023-08-12T04:24:49;102041.00;;;21.51;100.00
77776;BME280;66965;43.328;6.668;2023-08-12T04:27:14;102041.38;;;21.44;100.00
77776;BME280;66965;43.328;6.668;2023-08-12T04:29:41;102044.69;;;21.49;100.00
77776;BME280;66965;43.328;6.668;2023-08-12T04:32:07;102045.94;;;21.42;100.00
77776;BME280;66965;43.328;6.668;2023-08-12T04:34:32;102044.59;;;21.50;100.00
77776;BME280;66965;43.328;6.668;2023-08-12T04:36:58;102039.06;;;21.55;100.00
77776;BME280;66965;43.328;6.668;2023-08-12T04:39:23;102049.59;;;21.58;100.00
77776;BME280;66965;43.328;6.668;2023-08-12T04:41:48;102044.13;;;21.61;100.00
77776;BME280;66965;43.328;6.668;2023-08-12T04:44:14;102049.94;;;21.50;100.00
77776;BME280;66965;43.328;6.668;2023-08-12T04:46:39;102045.69;;;21.46;100.00
77776;BME280;66965;43.328;6.668;2023-08-12T04:49:05;102047.28;;;21.50;100.00
77776;BME280;66965;43.328;6.668;2023-08-12T04:51:31;102041.16;;;21.48;100.00
77776;BME280;66965;43.328;6.668;2023-08-12T04:53:56;102042.03;;;21.49;100.00
77776;BME280;66965;43.328;6.668;2023-08-12T04:56:22;102046.47;;;21.48;100.00
77776;BME280;66965;43.328;6.668;2023-08-12T04:58:48;102039.81;;;21.58;100.00
77776;BME280;66965;43.328;6.668;2023-08-12T05:01:13;102040.44;;;21.63;100.00
77776;BME280;66965;43.328;6.668;2023-08-12T05:03:39;102048.59;;;21.60;100.00
77776;BME280;66965;43.328;6.668;2023-08-12T05:06:04;102051.91;;;21.65;100.00
77776;BME280;66965;43.328;6.668;2023-08-12T05:08:30;102050.00;;;21.67;100.00
77776;BME280;66965;43.328;6.668;2023-08-12T05:10:55;102055.84;;;21.75;100.00
77776;BME280;66965;43.328;6.668;2023-08-12T05:13:21;102050.38;;;21.78;100.00
77776;BME280;66965;43.328;6.668;2023-08-12T05:15:47;102049.00;;;21.89;100.00
77776;BME280;66965;43.328;6.668;2023-08-12T05:18:13;102048.72;;;21.95;100.00
77776;BME280;66965;43.328;6.668;2023-08-12T05:20:42;102051.25;;;21.98;100.00
77776;BME280;66965;43.328;6.668;2023-08-12T05:23:08;102042.97;;;22.21;100.00
77776;BME280;66965;43.328;6.668;2023-08-12T05:25:34;102042.81;;;22.24;100.00
77776;BME280;66965;43.328;6.668;2023-08-12T05:27:59;102045.63;;;22.38;100.00
77776;BME280;66965;43.328;6.668;2023-08-12T05:30:25;102035.88;;;22.54;100.00
77776;BME280;66965;43.328;6.668;2023-08-12T05:32:50;102037.03;;;22.67;100.00
77776;BME280;66965;43.328;6.668;2023-08-12T05:35:15;102042.22;;;22.70;100.00
77776;BME280;66965;43.328;6.668;2023-08-12T05:37:41;102039.75;;;22.83;100.00
77776;BME280;66965;43.328;6.668;2023-08-12T05:40:08;102041.25;;;22.88;100.00
77776;BME280;66965;43.328;6.668;2023-08-12T05:42:35;102033.69;;;22.96;100.00
77776;BME280;66965;43.328;6.668;2023-08-12T05:45:00;102038.53;;;23.06;100.00
77776;BME280;66965;43.328;6.668;2023-08-12T05:47:26;102040.19;;;23.08;100.00
77776;BME280;66965;43.328;6.668;2023-08-12T05:49:51;102052.44;;;23.12;100.00
77776;BME280;66965;43.328;6.668;2023-08-12T05:52:17;102050.59;;;23.30;100.00
77776;BME280;66965;43.328;6.668;2023-08-12T05:54:42;102047.41;;;23.39;100.00
77776;BME280;66965;43.328;6.668;2023-08-12T05:57:08;102053.06;;;23.50;100.00
77776;BME280;66965;43.328;6.668;2023-08-12T05:59:33;102057.56;;;23.65;100.00
77776;BME280;66965;43.328;6.668;2023-08-12T06:01:58;102047.47;;;23.70;100.00
77776;BME280;66965;43.328;6.668;2023-08-12T06:04:24;102052.97;;;23.67;100.00
77776;BME280;66965;43.328;6.668;2023-08-12T06:06:50;102063.03;;;23.79;100.00
77776;BME280;66965;43.328;6.668;2023-08-12T06:09:15;102056.94;;;23.91;100.00
77776;BME280;66965;43.328;6.668;2023-08-12T06:11:40;102046.59;;;24.01;100.00
77776;BME280;66965;43.328;6.668;2023-08-12T06:14:06;102048.66;;;24.11;100.00
77776;BME280;66965;43.328;6.668;2023-08-12T06:16:31;102050.03;;;24.18;100.00
77776;BME280;66965;43.328;6.668;2023-08-12T06:18:57;102044.31;;;24.25;100.00
77776;BME280;66965;43.328;6.668;2023-08-12T06:21:22;102034.19;;;24.30;100.00
77776;BME280;66965;43.328;6.668;2023-08-12T06:23:48;102042.75;;;24.36;100.00
77776;BME280;66965;43.328;6.668;2023-08-12T06:26:13;102041.16;;;24.48;100.00
77776;BME280;66965;43.328;6.668;2023-08-12T06:28:38;102032.91;;;24.51;100.00
77776;BME280;66965;43.328;6.668;2023-08-12T06:31:04;102032.63;;;24.55;100.00
77776;BME280;66965;43.328;6.668;2023-08-12T06:33:29;102032.00;;;24.66;100.00
77776;BME280;66965;43.328;6.668;2023-08-12T06:35:55;102025.09;;;24.76;100.00
77776;BME280;66965;43.328;6.668;2023-08-12T06:38:20;102026.31;;;24.86;100.00
77776;BME280;66965;43.328;6.668;2023-08-12T06:40:47;102026.69;;;24.94;100.00
77776;BME280;66965;43.328;6.668;2023-08-12T06:43:12;102033.41;;;25.01;100.00
77776;BME280;66965;43.328;6.668;2023-08-12T06:45:37;102022.84;;;25.12;100.00
77776;BME280;66965;43.328;6.668;2023-08-12T06:48:03;102023.53;;;25.16;100.00
77776;BME280;66965;43.328;6.668;2023-08-12T06:50:28;102019.31;;;25.26;100.00
77776;BME280;66965;43.328;6.668;2023-08-12T06:52:54;102021.09;;;25.40;100.00
77776;BME280;66965;43.328;6.668;2023-08-12T06:55:19;102031.38;;;25.47;100.00
77776;BME280;66965;43.328;6.668;2023-08-12T06:57:45;102020.72;;;25.46;100.00
77776;BME280;66965;43.328;6.668;2023-08-12T07:00:10;102024.19;;;25.48;100.00
77776;BME280;66965;43.328;6.668;2023-08-12T07:02:36;102029.06;;;25.55;100.00
77776;BME280;66965;43.328;6.668;2023-08-12T07:05:02;102033.53;;;25.69;100.00
77776;BME280;66965;43.328;6.668;2023-08-12T07:07:27;102033.16;;;25.75;100.00
77776;BME280;66965;43.328;6.668;2023-08-12T07:09:52;102036.13;;;25.84;100.00
77776;BME280;66965;43.328;6.668;2023-08-12T07:12:18;102043.03;;;26.01;100.00
77776;BME280;66965;43.328;6.668;2023-08-12T07:14:43;102033.13;;;26.16;100.00
77776;BME280;66965;43.328;6.668;2023-08-12T07:17:09;102027.91;;;26.39;100.00
77776;BME280;66965;43.328;6.668;2023-08-12T07:19:34;102025.91;;;26.56;100.00
77776;BME280;66965;43.328;6.668;2023-08-12T07:21:59;102023.13;;;26.70;100.00
77776;BME280;66965;43.328;6.668;2023-08-12T07:24:25;102023.78;;;26.86;100.00
77776;BME280;66965;43.328;6.668;2023-08-12T07:26:50;102005.72;;;27.13;100.00
77776;BME280;66965;43.328;6.668;2023-08-12T07:29:16;102017.31;;;27.26;100.00
77776;BME280;66965;43.328;6.668;2023-08-12T07:31:42;102011.47;;;27.32;100.00
77776;BME280;66965;43.328;6.668;2023-08-12T07:34:07;102019.88;;;27.28;100.00
77776;BME280;66965;43.328;6.668;2023-08-12T07:36:32;102013.63;;;27.52;100.00
77776;BME280;66965;43.328;6.668;2023-08-12T07:38:58;102019.16;;;27.75;100.00
77776;BME280;66965;43.328;6.668;2023-08-12T07:41:23;102019.28;;;27.73;100.00
77776;BME280;66965;43.328;6.668;2023-08-12T07:43:52;102013.63;;;27.52;100.00
77776;BME280;66965;43.328;6.668;2023-08-12T07:46:18;102018.19;;;27.76;100.00
77776;BME280;66965;43.328;6.668;2023-08-12T07:48:43;102012.25;;;27.71;100.00
77776;BME280;66965;43.328;6.668;2023-08-12T07:51:09;102013.78;;;28.22;100.00
77776;BME280;66965;43.328;6.668;2023-08-12T07:53:34;102016.91;;;28.86;100.00
77776;BME280;66965;43.328;6.668;2023-08-12T07:56:00;102011.38;;;28.87;100.00
77776;BME280;66965;43.328;6.668;2023-08-12T07:58:25;102012.13;;;29.56;100.00
77776;BME280;66965;43.328;6.668;2023-08-12T08:00:53;102008.50;;;29.88;100.00
77776;BME280;66965;43.328;6.668;2023-08-12T08:03:19;102017.56;;;29.99;100.00
77776;BME280;66965;43.328;6.668;2023-08-12T08:05:44;102006.41;;;30.24;100.00
77776;BME280;66965;43.328;6.668;2023-08-12T08:08:10;102011.88;;;30.33;100.00
77776;BME280;66965;43.328;6.668;2023-08-12T08:10:36;102018.13;;;30.45;100.00
77776;BME280;66965;43.328;6.668;2023-08-12T08:13:01;102016.59;;;30.93;100.00
77776;BME280;66965;43.328;6.668;2023-08-12T08:15:26;102016.13;;;31.19;100.00
77776;BME280;66965;43.328;6.668;2023-08-12T08:17:52;102017.78;;;31.40;100.00
77776;BME280;66965;43.328;6.668;2023-08-12T08:20:17;102019.72;;;31.59;100.00
77776;BME280;66965;43.328;6.668;2023-08-12T08:22:43;102014.94;;;31.91;100.00
77776;BME280;66965;43.328;6.668;2023-08-12T08:25:08;102024.66;;;31.94;100.00
77776;BME280;66965;43.328;6.668;2023-08-12T08:27:34;102019.50;;;32.39;100.00
77776;BME280;66965;43.328;6.668;2023-08-12T08:29:59;102017.22;;;32.44;100.00
77776;BME280;66965;43.328;6.668;2023-08-12T08:32:25;102016.47;;;32.80;100.00
77776;BME280;66965;43.328;6.668;2023-08-12T08:34:51;102017.28;;;32.90;100.00
77776;BME280;66965;43.328;6.668;2023-08-12T08:37:16;102026.41;;;32.23;100.00
77776;BME280;66965;43.328;6.668;2023-08-12T08:39:41;102024.28;;;32.93;100.00
77776;BME280;66965;43.328;6.668;2023-08-12T08:42:09;102026.19;;;33.29;100.00
77776;BME280;66965;43.328;6.668;2023-08-12T08:44:35;102030.06;;;33.54;100.00
77776;BME280;66965;43.328;6.668;2023-08-12T08:47:03;102037.56;;;34.32;100.00
77776;BME280;66965;43.328;6.668;2023-08-12T08:49:30;102042.00;;;34.33;100.00
77776;BME280;66965;43.328;6.668;2023-08-12T08:51:58;102038.53;;;34.48;100.00
77776;BME280;66965;43.328;6.668;2023-08-12T08:54:24;102041.00;;;34.16;100.00
77776;BME280;66965;43.328;6.668;2023-08-12T08:56:50;102032.59;;;33.37;100.00
77776;BME280;66965;43.328;6.668;2023-08-12T08:59:16;102033.19;;;34.04;100.00
77776;BME280;66965;43.328;6.668;2023-08-12T09:01:43;102040.56;;;34.21;100.00
77776;BME280;66965;43.328;6.668;2023-08-12T09:04:12;102032.97;;;34.32;100.00
77776;BME280;66965;43.328;6.668;2023-08-12T09:06:39;102028.56;;;34.75;100.00
77776;BME280;66965;43.328;6.668;2023-08-12T09:09:10;102038.53;;;34.48;100.00
77776;BME280;66965;43.328;6.668;2023-08-12T09:11:38;102038.03;;;34.88;100.00
77776;BME280;66965;43.328;6.668;2023-08-12T09:14:04;102047.72;;;35.08;100.00
77776;BME280;66965;43.328;6.668;2023-08-12T09:16:30;102034.56;;;34.78;100.00
77776;BME280;66965;43.328;6.668;2023-08-12T09:18:56;102033.75;;;34.42;100.00
77776;BME280;66965;43.328;6.668;2023-08-12T09:21:21;102033.81;;;34.94;100.00
77776;BME280;66965;43.328;6.668;2023-08-12T09:23:48;102030.50;;;35.50;100.00
77776;BME280;66965;43.328;6.668;2023-08-12T09:26:15;102029.50;;;35.51;100.00
77776;BME280;66965;43.328;6.668;2023-08-12T09:28:42;102024.66;;;35.79;100.00
77776;BME280;66965;43.328;6.668;2023-08-12T09:31:07;102030.16;;;35.95;100.00
77776;BME280;66965;43.328;6.668;2023-08-12T09:33:38;102028.38;;;35.69;100.00
77776;BME280;66965;43.328;6.668;2023-08-12T09:36:04;102032.25;;;36.41;97.94
77776;BME280;66965;43.328;6.668;2023-08-12T09:38:29;102031.22;;;36.10;99.09
77776;BME280;66965;43.328;6.668;2023-08-12T09:40:56;102023.75;;;36.28;100.00
77776;BME280;66965;43.328;6.668;2023-08-12T09:43:27;102029.28;;;35.94;100.00
77776;BME280;66965;43.328;6.668;2023-08-12T09:45:56;102022.69;;;36.21;98.23
77776;BME280;66965;43.328;6.668;2023-08-12T09:48:23;102027.13;;;36.38;100.00
77776;BME280;66965;43.328;6.668;2023-08-12T09:50:49;102026.63;;;36.35;96.38
77776;BME280;66965;43.328;6.668;2023-08-12T09:53:15;102032.94;;;36.03;97.88
77776;BME280;66965;43.328;6.668;2023-08-12T09:55:41;102029.88;;;36.14;97.44
77776;BME280;66965;43.328;6.668;2023-08-12T09:58:09;102029.00;;;36.46;90.96
77776;BME280;66965;43.328;6.668;2023-08-12T10:00:35;102023.19;;;36.81;90.71
77776;BME280;66965;43.328;6.668;2023-08-12T10:03:01;102028.19;;;36.61;92.24
77776;BME280;66965;43.328;6.668;2023-08-12T10:05:28;102035.72;;;37.30;88.53
77776;BME280;66965;43.328;6.668;2023-08-12T10:07:56;102031.06;;;36.28;95.16
77776;BME280;66965;43.328;6.668;2023-08-12T10:10:24;102037.53;;;37.07;87.49
77776;BME280;66965;43.328;6.668;2023-08-12T10:12:50;102040.94;;;37.01;88.51
77776;BME280;66965;43.328;6.668;2023-08-12T10:15:16;102032.34;;;37.20;88.04
77776;BME280;66965;43.328;6.668;2023-08-12T10:17:41;102033.44;;;36.79;91.90
77776;BME280;66965;43.328;6.668;2023-08-12T10:20:16;102032.59;;;36.38;91.12
77776;BME280;66965;43.328;6.668;2023-08-12T10:22:46;102028.34;;;36.11;94.98
77776;BME280;66965;43.328;6.668;2023-08-12T10:25:13;102024.41;;;36.06;97.37
77776;BME280;66965;43.328;6.668;2023-08-12T10:27:38;102018.44;;;36.18;96.21
77776;BME280;66965;43.328;6.668;2023-08-12T10:30:05;102018.94;;;36.14;96.13
77776;BME280;66965;43.328;6.668;2023-08-12T10:32:31;102027.47;;;36.27;97.90
77776;BME280;66965;43.328;6.668;2023-08-12T10:34:57;102021.16;;;36.67;94.35
77776;BME280;66965;43.328;6.668;2023-08-12T10:37:27;102023.53;;;36.78;91.20
77776;BME280;66965;43.328;6.668;2023-08-12T10:39:55;102032.25;;;36.41;90.25
77776;BME280;66965;43.328;6.668;2023-08-12T10:42:43;102030.97;;;37.16;90.24
77776;BME280;66965;43.328;6.668;2023-08-12T10:45:10;102026.34;;;37.94;90.74
77776;BME280;66965;43.328;6.668;2023-08-12T10:47:43;102028.13;;;38.10;86.68
77776;BME280;66965;43.328;6.668;2023-08-12T10:50:20;102019.91;;;37.79;85.14
77776;BME280;66965;43.328;6.668;2023-08-12T10:52:46;102015.75;;;37.91;91.07
77776;BME280;66965;43.328;6.668;2023-08-12T10:55:27;102011.53;;;37.50;93.41
77776;BME280;66965;43.328;6.668;2023-08-12T10:57:54;102005.56;;;37.38;96.66
77776;BME280;66965;43.328;6.668;2023-08-12T11:00:26;101995.16;;;36.79;100.00
77776;BME280;66965;43.328;6.668;2023-08-12T11:02:53;101999.50;;;36.09;100.00
77776;BME280;66965;43.328;6.668;2023-08-12T11:05:20;101996.53;;;35.36;100.00
77776;BME280;66965;43.328;6.668;2023-08-12T11:10:21;101997.69;;;35.76;100.00
77776;BME280;66965;43.328;6.668;2023-08-12T11:12:57;101996.56;;;36.18;100.00
77776;BME280;66965;43.328;6.668;2023-08-12T11:18:04;101999.63;;;36.23;100.00
77776;BME280;66965;43.328;6.668;2023-08-12T11:20:30;102000.34;;;36.58;100.00
77776;BME280;66965;43.328;6.668;2023-08-12T11:22:56;102001.81;;;35.88;100.00
77776;BME280;66965;43.328;6.668;2023-08-12T11:25:23;101985.81;;;36.57;100.00
77776;BME280;66965;43.328;6.668;2023-08-12T11:27:49;101985.78;;;36.73;100.00
77776;BME280;66965;43.328;6.668;2023-08-12T11:30:19;101992.56;;;37.02;100.00
77776;BME280;66965;43.328;6.668;2023-08-12T11:32:47;101987.81;;;35.99;100.00
77776;BME280;66965;43.328;6.668;2023-08-12T11:35:14;101987.19;;;36.29;100.00
77776;BME280;66965;43.328;6.668;2023-08-12T11:37:42;101977.94;;;36.46;100.00
77776;BME280;66965;43.328;6.668;2023-08-12T11:40:09;101977.22;;;35.72;100.00
77776;BME280;66965;43.328;6.668;2023-08-12T11:42:36;101976.75;;;35.34;100.00
77776;BME280;66965;43.328;6.668;2023-08-12T11:45:03;101971.00;;;35.45;100.00
77776;BME280;66965;43.328;6.668;2023-08-12T11:47:29;101969.59;;;36.56;100.00
77776;BME280;66965;43.328;6.668;2023-08-12T11:49:54;101969.59;;;36.15;100.00
77776;BME280;66965;43.328;6.668;2023-08-12T11:52:20;101968.31;;;36.99;100.00
77776;BME280;66965;43.328;6.668;2023-08-12T11:54:46;101969.09;;;37.15;100.00
77776;BME280;66965;43.328;6.668;2023-08-12T11:57:13;101970.00;;;37.69;97.06
77776;BME280;66965;43.328;6.668;2023-08-12T11:59:38;101966.88;;;38.03;94.92
77776;BME280;66965;43.328;6.668;2023-08-12T12:02:04;101962.53;;;36.77;100.00
77776;BME280;66965;43.328;6.668;2023-08-12T12:04:33;101963.97;;;37.12;100.00
77776;BME280;66965;43.328;6.668;2023-08-12T12:06:58;101966.44;;;37.30;100.00
77776;BME280;66965;43.328;6.668;2023-08-12T12:09:25;101967.88;;;36.63;100.00
77776;BME280;66965;43.328;6.668;2023-08-12T12:11:54;101966.34;;;35.96;100.00
77776;BME280;66965;43.328;6.668;2023-08-12T12:14:20;101955.84;;;36.96;100.00
77776;BME280;66965;43.328;6.668;2023-08-12T12:16:47;101956.13;;;36.14;100.00
77776;BME280;66965;43.328;6.668;2023-08-12T12:19:19;101956.97;;;36.55;100.00
77776;BME280;66965;43.328;6.668;2023-08-12T12:21:48;101957.97;;;37.78;100.00
77776;BME280;66965;43.328;6.668;2023-08-12T12:24:14;101956.59;;;38.42;97.68
77776;BME280;66965;43.328;6.668;2023-08-12T12:26:40;101959.56;;;38.70;96.80
77776;BME280;66965;43.328;6.668;2023-08-12T12:29:06;101954.38;;;38.90;96.11
77776;BME280;66965;43.328;6.668;2023-08-12T12:31:33;101964.16;;;38.40;100.00
77776;BME280;66965;43.328;6.668;2023-08-12T12:34:00;101961.38;;;37.80;100.00
77776;BME280;66965;43.328;6.668;2023-08-12T12:36:26;101950.97;;;37.98;100.00
77776;BME280;66965;43.328;6.668;2023-08-12T12:38:51;101952.97;;;37.59;100.00
77776;BME280;66965;43.328;6.668;2023-08-12T12:41:17;101953.34;;;37.79;100.00
77776;BME280;66965;43.328;6.668;2023-08-12T12:43:42;101954.22;;;38.02;97.84
77776;BME280;66965;43.328;6.668;2023-08-12T12:46:08;101956.16;;;38.16;99.66